首页
METAR-TAF:

METAR-TAF

机场 :

仁川國際機場

仁川国际机场, 大韩民国

纬度: 37-28N, 经度: 126-27E, 海拔: 7米

当前天气观测

该预报发布于17分钟前的23:00 UTC
风速13节,风向
温度 9°C
湿度 76%
气压 1014 hPa
能見度: 3300
少量云层高于1500英尺
多云层高于2000英尺
轻雾

METAR: RKSI 262300Z 18013KT 3300 BR FEW015 BKN020 09/05 Q1014 NOSIG

时间: 08:17 (23:17 UTC)

预报

该预报发布于6小时和17分钟前的17:00 UTC
预报有效从26日的 18点(UTC)到 27日的 24点(UTC)
风速8节,风向
能見度: 4200
少量云层高于3000英尺
多云层高于12000英尺
轻雾
短暂存在
从 26日的 20点(UTC)到 26日的 22点(UTC)
能見度: 2500
成为
从 27日的 00点(UTC)到 27日的 01点(UTC)
风速15节,风向南转西南,有时为25节阵风
能見度: 6000
短暂存在
从 27日的 04点(UTC)到 27日的 06点(UTC)
能見度: 4200
多云层高于2500英尺
小雨
成为
从 27日的 10点(UTC)到 27日的 11点(UTC)
风速8节,风向西转西南
能見度: 3500
轻雾
成为
从 27日的 17点(UTC)到 27日的 18点(UTC)
风速15节,风向北转西北,有时为25节阵风
能見度: 7000

TAF: RKSI 261700Z 2618/2724 18008KT 4200 BR FEW030 BKN120 TN05/2620Z TX13/2705Z TN04/2721Z TEMPO 2620/2622 2500 BECMG 2700/2701 21015G25KT 6000 NSW TEMPO 2704/2706 4200 -RA BKN025 BECMG 2710/2711 25008KT 3500 BR BECMG 2717/2718 33015G25KT 7000 NSW

超过4000个机场的气象观测和天气预报(METAR&TAF报告)。

可查询的气象台以黄色和红色小点在地图上表示。

将鼠标移到小点上方,可查看气象台名称。

然后点击查看天气观测和预报。

如需切换地图:点击带黑十字的绿色按钮放大地图;点击带横线的绿色按钮缩小地图;或者点击绿色箭头查看邻近地区的地图。


METAR-TAF: